Accueil
METAR-TAF:

METAR-TAF

Aéroports :

Beyrouth, Liban

latitude: 33-49N, longitude: 035-29E, altitude: 29 m

Observation

Le bulletin a été fait il y a 40 minutes, à 04:00 UTC
Vent 6 kt de est/sud-est
Température 14°C
Humidité 38%
Pression 1023 hPa
Visibilité: 8000 m
Nuages épars à une hauteur de 20000 ft

METAR: OLBA 120400Z 12006KT 8000 SCT200 14/00 Q1023 NOSIG

Heure: 06:40 (04:40 UTC)

Prévision

Le bulletin a été fait il y a 6 heures et 40 minutes, à 22:00 UTC
Prévision valable du 12 à 00 UTC au 13 à 06 UTC
Vent 5 kt de direction variable
Visibilité: 8000 m
Nuages fragmentés à une hauteur de 20000 ft
Evoluant progressivement
du 12 à 09 UTC au 12 à 12 UTC
Vent 8 kt de nord/nord-est
Evoluant progressivement
du 12 à 18 UTC au 12 à 21 UTC
Vent 5 kt de direction variable
Nuages épars à une hauteur de 20000 ft

TAF: OLBA 112200Z 1200/1306 VRB05KT 8000 BKN200 BECMG 1209/1212 03008KT BECMG 1218/1221 VRB05KT SCT200

Observations et prévisions météorologiques de plus de 4000 aéroports (messages METAR et TAF).

Les stations disponibles sont représentées par des disques jaunes et rouges sur la carte.

Passer la souris dessus pour voir le nom de la station.

Cliquer dessus pour voir les observations et prévisions météorologiques.

Pour changer de carte: cliquez sur les boutons verts avec une croix noire pour zoomer, sur le bouton vert avec un tiret pour effectuer un zoom arrière, ou sur les flèches vertes pour les cartes adjacentes.


METAR-TAF: